sensor_id;sensor_type;location;lat;lon;timestamp;P1;durP1;ratioP1;P2;durP2;ratioP2
26106;SDS011;13866;50.748;12.630;2023-04-06T00:00:47;4.90;;;4.70;;
26106;SDS011;13866;50.748;12.630;2023-04-06T00:03:14;5.97;;;5.47;;
26106;SDS011;13866;50.748;12.630;2023-04-06T00:05:39;5.07;;;4.90;;
26106;SDS011;13866;50.748;12.630;2023-04-06T00:08:05;4.40;;;4.30;;
26106;SDS011;13866;50.748;12.630;2023-04-06T00:10:31;5.03;;;4.73;;
26106;SDS011;13866;50.748;12.630;2023-04-06T00:12:57;4.87;;;4.77;;
26106;SDS011;13866;50.748;12.630;2023-04-06T00:15:23;5.20;;;4.93;;
26106;SDS011;13866;50.748;12.630;2023-04-06T00:17:49;7.63;;;7.20;;
26106;SDS011;13866;50.748;12.630;2023-04-06T00:20:15;6.63;;;6.33;;
26106;SDS011;13866;50.748;12.630;2023-04-06T00:22:41;6.80;;;6.30;;
26106;SDS011;13866;50.748;12.630;2023-04-06T00:25:06;5.63;;;5.43;;
26106;SDS011;13866;50.748;12.630;2023-04-06T00:27:32;6.60;;;6.20;;
26106;SDS011;13866;50.748;12.630;2023-04-06T00:29:58;6.63;;;6.13;;
26106;SDS011;13866;50.748;12.630;2023-04-06T00:32:23;6.50;;;6.07;;
26106;SDS011;13866;50.748;12.630;2023-04-06T00:34:49;7.70;;;6.43;;
26106;SDS011;13866;50.748;12.630;2023-04-06T00:37:15;5.73;;;5.50;;
26106;SDS011;13866;50.748;12.630;2023-04-06T00:39:40;6.50;;;6.17;;
26106;SDS011;13866;50.748;12.630;2023-04-06T00:42:12;6.63;;;6.13;;
26106;SDS011;13866;50.748;12.630;2023-04-06T00:44:39;7.07;;;6.60;;
26106;SDS011;13866;50.748;12.630;2023-04-06T00:47:05;6.07;;;5.67;;
26106;SDS011;13866;50.748;12.630;2023-04-06T00:49:31;6.53;;;6.30;;
26106;SDS011;13866;50.748;12.630;2023-04-06T00:51:57;5.97;;;5.77;;
26106;SDS011;13866;50.748;12.630;2023-04-06T00:54:23;5.53;;;5.43;;
26106;SDS011;13866;50.748;12.630;2023-04-06T00:56:48;5.97;;;5.67;;
26106;SDS011;13866;50.748;12.630;2023-04-06T00:59:14;5.40;;;5.20;;
26106;SDS011;13866;50.748;12.630;2023-04-06T01:01:40;6.80;;;6.50;;
26106;SDS011;13866;50.748;12.630;2023-04-06T01:04:06;7.13;;;6.63;;
26106;SDS011;13866;50.748;12.630;2023-04-06T01:06:31;6.97;;;6.10;;
26106;SDS011;13866;50.748;12.630;2023-04-06T01:08:57;6.40;;;6.20;;
26106;SDS011;13866;50.748;12.630;2023-04-06T01:11:22;9.57;;;7.23;;
26106;SDS011;13866;50.748;12.630;2023-04-06T01:13:48;12.23;;;6.93;;
26106;SDS011;13866;50.748;12.630;2023-04-06T01:16:13;7.63;;;7.03;;
26106;SDS011;13866;50.748;12.630;2023-04-06T01:18:40;7.80;;;7.30;;
26106;SDS011;13866;50.748;12.630;2023-04-06T01:21:07;7.60;;;7.20;;
26106;SDS011;13866;50.748;12.630;2023-04-06T01:23:33;6.40;;;6.20;;
26106;SDS011;13866;50.748;12.630;2023-04-06T01:25:59;6.67;;;6.27;;
26106;SDS011;13866;50.748;12.630;2023-04-06T01:28:25;6.67;;;6.30;;
26106;SDS011;13866;50.748;12.630;2023-04-06T01:30:50;6.87;;;6.50;;
26106;SDS011;13866;50.748;12.630;2023-04-06T01:33:16;7.00;;;6.60;;
26106;SDS011;13866;50.748;12.630;2023-04-06T01:35:41;7.63;;;6.93;;
26106;SDS011;13866;50.748;12.630;2023-04-06T01:38:07;8.13;;;7.37;;
26106;SDS011;13866;50.748;12.630;2023-04-06T01:40:32;7.60;;;7.00;;
26106;SDS011;13866;50.748;12.630;2023-04-06T01:42:58;8.03;;;7.20;;
26106;SDS011;13866;50.748;12.630;2023-04-06T01:45:23;6.93;;;6.50;;
26106;SDS011;13866;50.748;12.630;2023-04-06T01:47:48;7.10;;;6.60;;
26106;SDS011;13866;50.748;12.630;2023-04-06T01:50:14;7.10;;;6.80;;
26106;SDS011;13866;50.748;12.630;2023-04-06T01:52:40;9.90;;;9.07;;
26106;SDS011;13866;50.748;12.630;2023-04-06T01:55:06;6.77;;;6.37;;
26106;SDS011;13866;50.748;12.630;2023-04-06T01:57:31;6.50;;;6.30;;
26106;SDS011;13866;50.748;12.630;2023-04-06T01:59:57;6.87;;;6.57;;
26106;SDS011;13866;50.748;12.630;2023-04-06T02:02:22;6.77;;;6.47;;
26106;SDS011;13866;50.748;12.630;2023-04-06T02:04:48;6.80;;;6.30;;
26106;SDS011;13866;50.748;12.630;2023-04-06T02:07:13;5.73;;;5.43;;
26106;SDS011;13866;50.748;12.630;2023-04-06T02:09:39;5.70;;;5.50;;
26106;SDS011;13866;50.748;12.630;2023-04-06T02:12:04;6.10;;;5.83;;
26106;SDS011;13866;50.748;12.630;2023-04-06T02:14:30;6.07;;;5.87;;
26106;SDS011;13866;50.748;12.630;2023-04-06T02:16:55;5.60;;;5.37;;
26106;SDS011;13866;50.748;12.630;2023-04-06T02:19:21;9.33;;;6.53;;
26106;SDS011;13866;50.748;12.630;2023-04-06T02:21:47;7.30;;;6.70;;
26106;SDS011;13866;50.748;12.630;2023-04-06T02:24:12;6.83;;;6.33;;
26106;SDS011;13866;50.748;12.630;2023-04-06T02:26:38;6.20;;;5.87;;
26106;SDS011;13866;50.748;12.630;2023-04-06T02:29:04;6.30;;;6.10;;
26106;SDS011;13866;50.748;12.630;2023-04-06T02:31:30;6.70;;;6.40;;
26106;SDS011;13866;50.748;12.630;2023-04-06T02:33:56;8.30;;;6.10;;
26106;SDS011;13866;50.748;12.630;2023-04-06T02:36:21;7.87;;;7.27;;
26106;SDS011;13866;50.748;12.630;2023-04-06T02:38:47;7.83;;;5.93;;
26106;SDS011;13866;50.748;12.630;2023-04-06T02:41:12;6.77;;;6.17;;
26106;SDS011;13866;50.748;12.630;2023-04-06T02:43:37;6.07;;;5.70;;
26106;SDS011;13866;50.748;12.630;2023-04-06T02:46:03;7.70;;;7.00;;
26106;SDS011;13866;50.748;12.630;2023-04-06T02:48:29;6.17;;;5.77;;
26106;SDS011;13866;50.748;12.630;2023-04-06T02:50:54;5.87;;;5.57;;
26106;SDS011;13866;50.748;12.630;2023-04-06T02:53:20;6.07;;;5.57;;
26106;SDS011;13866;50.748;12.630;2023-04-06T02:55:46;7.10;;;6.67;;
26106;SDS011;13866;50.748;12.630;2023-04-06T02:58:11;5.93;;;5.63;;
26106;SDS011;13866;50.748;12.630;2023-04-06T03:00:37;7.13;;;6.50;;
26106;SDS011;13866;50.748;12.630;2023-04-06T03:03:02;6.70;;;6.10;;
26106;SDS011;13866;50.748;12.630;2023-04-06T03:05:28;5.90;;;5.70;;
26106;SDS011;13866;50.748;12.630;2023-04-06T03:07:53;6.03;;;5.73;;
26106;SDS011;13866;50.748;12.630;2023-04-06T03:10:19;6.20;;;6.00;;
26106;SDS011;13866;50.748;12.630;2023-04-06T03:12:44;5.90;;;5.60;;
26106;SDS011;13866;50.748;12.630;2023-04-06T03:15:10;6.60;;;6.30;;
26106;SDS011;13866;50.748;12.630;2023-04-06T03:17:36;7.10;;;6.17;;
26106;SDS011;13866;50.748;12.630;2023-04-06T03:20:01;7.07;;;6.67;;
26106;SDS011;13866;50.748;12.630;2023-04-06T03:22:28;7.87;;;7.37;;
26106;SDS011;13866;50.748;12.630;2023-04-06T03:24:54;6.23;;;6.07;;
26106;SDS011;13866;50.748;12.630;2023-04-06T03:27:19;6.30;;;6.20;;
26106;SDS011;13866;50.748;12.630;2023-04-06T03:29:45;8.53;;;6.37;;
26106;SDS011;13866;50.748;12.630;2023-04-06T03:32:10;5.70;;;5.60;;
26106;SDS011;13866;50.748;12.630;2023-04-06T03:34:36;6.90;;;6.60;;
26106;SDS011;13866;50.748;12.630;2023-04-06T03:37:02;6.13;;;5.73;;
26106;SDS011;13866;50.748;12.630;2023-04-06T03:39:28;5.80;;;5.60;;
26106;SDS011;13866;50.748;12.630;2023-04-06T03:41:53;14.80;;;6.70;;
26106;SDS011;13866;50.748;12.630;2023-04-06T03:44:19;7.23;;;6.70;;
26106;SDS011;13866;50.748;12.630;2023-04-06T03:46:45;6.37;;;6.17;;
26106;SDS011;13866;50.748;12.630;2023-04-06T03:49:10;6.97;;;6.70;;
26106;SDS011;13866;50.748;12.630;2023-04-06T03:51:35;6.57;;;6.17;;
26106;SDS011;13866;50.748;12.630;2023-04-06T03:54:01;6.70;;;6.20;;
26106;SDS011;13866;50.748;12.630;2023-04-06T03:56:26;6.33;;;5.93;;
26106;SDS011;13866;50.748;12.630;2023-04-06T03:58:52;6.00;;;5.60;;
26106;SDS011;13866;50.748;12.630;2023-04-06T04:01:18;6.33;;;6.13;;
26106;SDS011;13866;50.748;12.630;2023-04-06T04:03:43;6.07;;;5.80;;
26106;SDS011;13866;50.748;12.630;2023-04-06T04:06:09;5.93;;;5.53;;
26106;SDS011;13866;50.748;12.630;2023-04-06T04:08:34;6.23;;;6.00;;
26106;SDS011;13866;50.748;12.630;2023-04-06T04:11:00;5.70;;;5.60;;
26106;SDS011;13866;50.748;12.630;2023-04-06T04:13:26;6.00;;;5.80;;
26106;SDS011;13866;50.748;12.630;2023-04-06T04:15:51;6.80;;;6.40;;
26106;SDS011;13866;50.748;12.630;2023-04-06T04:18:17;5.30;;;5.20;;
26106;SDS011;13866;50.748;12.630;2023-04-06T04:20:43;5.50;;;5.40;;
26106;SDS011;13866;50.748;12.630;2023-04-06T04:23:09;5.70;;;5.50;;
26106;SDS011;13866;50.748;12.630;2023-04-06T04:25:34;6.10;;;5.90;;
26106;SDS011;13866;50.748;12.630;2023-04-06T04:28:00;5.90;;;5.40;;
26106;SDS011;13866;50.748;12.630;2023-04-06T04:30:25;6.90;;;6.60;;
26106;SDS011;13866;50.748;12.630;2023-04-06T04:32:51;5.57;;;5.47;;
26106;SDS011;13866;50.748;12.630;2023-04-06T04:35:16;6.60;;;6.10;;
26106;SDS011;13866;50.748;12.630;2023-04-06T04:37:42;6.60;;;6.30;;
26106;SDS011;13866;50.748;12.630;2023-04-06T04:40:08;6.10;;;6.00;;
26106;SDS011;13866;50.748;12.630;2023-04-06T04:42:33;6.10;;;5.57;;
26106;SDS011;13866;50.748;12.630;2023-04-06T04:44:59;6.27;;;5.80;;
26106;SDS011;13866;50.748;12.630;2023-04-06T04:47:24;6.33;;;5.97;;
26106;SDS011;13866;50.748;12.630;2023-04-06T04:49:50;6.83;;;6.17;;
26106;SDS011;13866;50.748;12.630;2023-04-06T04:52:15;5.80;;;5.50;;
26106;SDS011;13866;50.748;12.630;2023-04-06T04:54:41;5.47;;;5.37;;
26106;SDS011;13866;50.748;12.630;2023-04-06T04:57:06;6.17;;;5.73;;
26106;SDS011;13866;50.748;12.630;2023-04-06T04:59:34;6.60;;;6.30;;
26106;SDS011;13866;50.748;12.630;2023-04-06T05:02:00;6.45;;;6.25;;
26106;SDS011;13866;50.748;12.630;2023-04-06T05:04:25;7.50;;;6.90;;
26106;SDS011;13866;50.748;12.630;2023-04-06T05:07:01;6.00;;;5.80;;
26106;SDS011;13866;50.748;12.630;2023-04-06T05:09:30;6.32;;;6.03;;
26106;SDS011;13866;50.748;12.630;2023-04-06T05:11:56;6.03;;;5.80;;
26106;SDS011;13866;50.748;12.630;2023-04-06T05:14:23;5.90;;;5.70;;
26106;SDS011;13866;50.748;12.630;2023-04-06T05:16:48;7.00;;;6.60;;
26106;SDS011;13866;50.748;12.630;2023-04-06T05:19:14;6.43;;;5.93;;
26106;SDS011;13866;50.748;12.630;2023-04-06T05:21:39;7.17;;;5.93;;
26106;SDS011;13866;50.748;12.630;2023-04-06T05:24:05;6.60;;;6.30;;
26106;SDS011;13866;50.748;12.630;2023-04-06T05:26:31;6.10;;;5.70;;
26106;SDS011;13866;50.748;12.630;2023-04-06T05:28:56;8.00;;;5.87;;
26106;SDS011;13866;50.748;12.630;2023-04-06T05:31:22;7.37;;;6.47;;
26106;SDS011;13866;50.748;12.630;2023-04-06T05:33:47;7.67;;;7.27;;
26106;SDS011;13866;50.748;12.630;2023-04-06T05:36:13;7.77;;;7.37;;
26106;SDS011;13866;50.748;12.630;2023-04-06T05:38:38;7.43;;;7.13;;
26106;SDS011;13866;50.748;12.630;2023-04-06T05:41:04;7.47;;;6.90;;
26106;SDS011;13866;50.748;12.630;2023-04-06T05:43:30;7.27;;;6.97;;
26106;SDS011;13866;50.748;12.630;2023-04-06T05:45:55;6.83;;;6.53;;
26106;SDS011;13866;50.748;12.630;2023-04-06T05:48:21;6.73;;;6.43;;
26106;SDS011;13866;50.748;12.630;2023-04-06T05:50:50;7.77;;;7.10;;
26106;SDS011;13866;50.748;12.630;2023-04-06T05:53:16;7.23;;;6.83;;
26106;SDS011;13866;50.748;12.630;2023-04-06T05:55:41;7.20;;;6.80;;
26106;SDS011;13866;50.748;12.630;2023-04-06T05:58:07;7.20;;;6.80;;
26106;SDS011;13866;50.748;12.630;2023-04-06T06:00:32;7.93;;;7.43;;
26106;SDS011;13866;50.748;12.630;2023-04-06T06:02:58;7.83;;;7.17;;
26106;SDS011;13866;50.748;12.630;2023-04-06T06:05:23;8.03;;;7.53;;
26106;SDS011;13866;50.748;12.630;2023-04-06T06:07:49;8.20;;;6.73;;
26106;SDS011;13866;50.748;12.630;2023-04-06T06:10:15;8.37;;;7.90;;
26106;SDS011;13866;50.748;12.630;2023-04-06T06:12:40;7.20;;;6.90;;
26106;SDS011;13866;50.748;12.630;2023-04-06T06:15:06;8.00;;;5.57;;
26106;SDS011;13866;50.748;12.630;2023-04-06T06:17:32;8.50;;;7.03;;
26106;SDS011;13866;50.748;12.630;2023-04-06T06:19:57;9.93;;;7.70;;
26106;SDS011;13866;50.748;12.630;2023-04-06T06:22:23;9.27;;;6.83;;
26106;SDS011;13866;50.748;12.630;2023-04-06T06:24:49;10.67;;;7.03;;
26106;SDS011;13866;50.748;12.630;2023-04-06T06:27:15;24.83;;;9.00;;
26106;SDS011;13866;50.748;12.630;2023-04-06T06:29:40;12.93;;;11.83;;
26106;SDS011;13866;50.748;12.630;2023-04-06T06:32:06;10.67;;;9.03;;
26106;SDS011;13866;50.748;12.630;2023-04-06T06:34:33;8.90;;;8.20;;
26106;SDS011;13866;50.748;12.630;2023-04-06T06:36:59;8.83;;;8.07;;
26106;SDS011;13866;50.748;12.630;2023-04-06T06:39:25;8.90;;;8.07;;
26106;SDS011;13866;50.748;12.630;2023-04-06T06:41:51;11.03;;;7.83;;
26106;SDS011;13866;50.748;12.630;2023-04-06T06:44:16;6.20;;;5.83;;
26106;SDS011;13866;50.748;12.630;2023-04-06T06:46:42;7.40;;;6.00;;
26106;SDS011;13866;50.748;12.630;2023-04-06T06:49:07;7.40;;;6.70;;
26106;SDS011;13866;50.748;12.630;2023-04-06T06:51:33;8.30;;;4.43;;
26106;SDS011;13866;50.748;12.630;2023-04-06T06:53:59;4.57;;;4.47;;
26106;SDS011;13866;50.748;12.630;2023-04-06T06:56:24;4.00;;;3.90;;
26106;SDS011;13866;50.748;12.630;2023-04-06T06:58:51;5.03;;;3.97;;
26106;SDS011;13866;50.748;12.630;2023-04-06T07:01:17;4.20;;;4.00;;
26106;SDS011;13866;50.748;12.630;2023-04-06T07:03:42;4.77;;;4.60;;
26106;SDS011;13866;50.748;12.630;2023-04-06T07:06:08;4.40;;;4.30;;
26106;SDS011;13866;50.748;12.630;2023-04-06T07:08:33;4.63;;;4.30;;
26106;SDS011;13866;50.748;12.630;2023-04-06T07:10:58;4.80;;;4.60;;
26106;SDS011;13866;50.748;12.630;2023-04-06T07:13:24;4.80;;;4.57;;
26106;SDS011;13866;50.748;12.630;2023-04-06T07:15:52;5.40;;;4.83;;
26106;SDS011;13866;50.748;12.630;2023-04-06T07:18:18;4.20;;;4.10;;
26106;SDS011;13866;50.748;12.630;2023-04-06T07:20:44;4.70;;;4.33;;
26106;SDS011;13866;50.748;12.630;2023-04-06T07:23:10;4.07;;;3.97;;
26106;SDS011;13866;50.748;12.630;2023-04-06T07:25:36;4.97;;;4.67;;
26106;SDS011;13866;50.748;12.630;2023-04-06T07:28:02;5.07;;;4.87;;
26106;SDS011;13866;50.748;12.630;2023-04-06T07:30:28;4.87;;;4.70;;
26106;SDS011;13866;50.748;12.630;2023-04-06T07:32:54;4.47;;;3.97;;
26106;SDS011;13866;50.748;12.630;2023-04-06T07:35:24;4.57;;;4.33;;
26106;SDS011;13866;50.748;12.630;2023-04-06T07:37:51;4.70;;;4.50;;
26106;SDS011;13866;50.748;12.630;2023-04-06T07:40:17;4.40;;;4.03;;
26106;SDS011;13866;50.748;12.630;2023-04-06T07:42:44;6.03;;;4.43;;
26106;SDS011;13866;50.748;12.630;2023-04-06T07:45:10;4.00;;;3.90;;
26106;SDS011;13866;50.748;12.630;2023-04-06T07:47:35;6.33;;;5.70;;
26106;SDS011;13866;50.748;12.630;2023-04-06T07:50:01;4.00;;;3.80;;
26106;SDS011;13866;50.748;12.630;2023-04-06T07:52:26;3.73;;;3.40;;
26106;SDS011;13866;50.748;12.630;2023-04-06T07:54:52;5.33;;;4.93;;
26106;SDS011;13866;50.748;12.630;2023-04-06T07:57:17;4.00;;;3.70;;
26106;SDS011;13866;50.748;12.630;2023-04-06T07:59:43;4.70;;;4.50;;
26106;SDS011;13866;50.748;12.630;2023-04-06T08:02:08;4.23;;;4.03;;
26106;SDS011;13866;50.748;12.630;2023-04-06T08:04:34;4.27;;;4.07;;
26106;SDS011;13866;50.748;12.630;2023-04-06T08:07:01;4.90;;;4.40;;
26106;SDS011;13866;50.748;12.630;2023-04-06T08:09:26;4.57;;;4.17;;
26106;SDS011;13866;50.748;12.630;2023-04-06T08:11:52;4.83;;;4.53;;
26106;SDS011;13866;50.748;12.630;2023-04-06T08:14:18;3.73;;;3.43;;
26106;SDS011;13866;50.748;12.630;2023-04-06T08:16:43;4.40;;;4.10;;
26106;SDS011;13866;50.748;12.630;2023-04-06T08:19:09;7.30;;;4.80;;
26106;SDS011;13866;50.748;12.630;2023-04-06T08:21:35;4.63;;;4.43;;
26106;SDS011;13866;50.748;12.630;2023-04-06T08:24:01;6.20;;;5.10;;
26106;SDS011;13866;50.748;12.630;2023-04-06T08:26:26;6.17;;;4.70;;
26106;SDS011;13866;50.748;12.630;2023-04-06T08:28:52;4.67;;;4.47;;
26106;SDS011;13866;50.748;12.630;2023-04-06T08:31:17;4.60;;;4.50;;
26106;SDS011;13866;50.748;12.630;2023-04-06T08:33:43;4.13;;;3.93;;
26106;SDS011;13866;50.748;12.630;2023-04-06T08:36:09;4.03;;;3.93;;
26106;SDS011;13866;50.748;12.630;2023-04-06T08:38:36;4.07;;;3.83;;
26106;SDS011;13866;50.748;12.630;2023-04-06T08:41:11;3.90;;;3.80;;
26106;SDS011;13866;50.748;12.630;2023-04-06T08:43:46;9.63;;;5.67;;
26106;SDS011;13866;50.748;12.630;2023-04-06T08:46:14;4.17;;;4.07;;
26106;SDS011;13866;50.748;12.630;2023-04-06T08:51:18;5.10;;;4.60;;
26106;SDS011;13866;50.748;12.630;2023-04-06T08:53:48;4.53;;;4.43;;
26106;SDS011;13866;50.748;12.630;2023-04-06T08:56:19;6.20;;;4.43;;
26106;SDS011;13866;50.748;12.630;2023-04-06T08:58:59;3.63;;;3.33;;
26106;SDS011;13866;50.748;12.630;2023-04-06T09:01:26;5.47;;;5.00;;
26106;SDS011;13866;50.748;12.630;2023-04-06T09:03:56;4.30;;;4.00;;
26106;SDS011;13866;50.748;12.630;2023-04-06T09:06:34;5.70;;;5.30;;
26106;SDS011;13866;50.748;12.630;2023-04-06T09:09:02;5.07;;;4.10;;
26106;SDS011;13866;50.748;12.630;2023-04-06T09:11:50;8.40;;;5.30;;
26106;SDS011;13866;50.748;12.630;2023-04-06T09:14:35;4.60;;;4.40;;
26106;SDS011;13866;50.748;12.630;2023-04-06T09:17:09;13.53;;;5.83;;
26106;SDS011;13866;50.748;12.630;2023-04-06T09:22:35;4.73;;;4.27;;
26106;SDS011;13866;50.748;12.630;2023-04-06T09:25:18;4.10;;;3.80;;
26106;SDS011;13866;50.748;12.630;2023-04-06T09:27:46;5.13;;;4.80;;
26106;SDS011;13866;50.748;12.630;2023-04-06T09:30:12;5.27;;;5.03;;
26106;SDS011;13866;50.748;12.630;2023-04-06T09:32:51;4.30;;;4.10;;
26106;SDS011;13866;50.748;12.630;2023-04-06T09:35:21;4.37;;;4.20;;
26106;SDS011;13866;50.748;12.630;2023-04-06T09:37:51;3.90;;;3.77;;
26106;SDS011;13866;50.748;12.630;2023-04-06T09:40:25;3.90;;;3.83;;
26106;SDS011;13866;50.748;12.630;2023-04-06T09:43:02;3.90;;;3.80;;
26106;SDS011;13866;50.748;12.630;2023-04-06T09:45:37;5.13;;;4.73;;
26106;SDS011;13866;50.748;12.630;2023-04-06T09:48:03;4.43;;;4.10;;
26106;SDS011;13866;50.748;12.630;2023-04-06T09:50:38;3.87;;;3.70;;
26106;SDS011;13866;50.748;12.630;2023-04-06T09:53:05;12.73;;;3.17;;
26106;SDS011;13866;50.748;12.630;2023-04-06T09:55:35;4.60;;;4.23;;
26106;SDS011;13866;50.748;12.630;2023-04-06T09:58:09;3.63;;;3.43;;
26106;SDS011;13866;50.748;12.630;2023-04-06T10:00:56;4.50;;;3.70;;
26106;SDS011;13866;50.748;12.630;2023-04-06T10:06:17;3.20;;;3.17;;
26106;SDS011;13866;50.748;12.630;2023-04-06T10:08:51;3.47;;;3.33;;
26106;SDS011;13866;50.748;12.630;2023-04-06T10:11:20;4.50;;;4.30;;
26106;SDS011;13866;50.748;12.630;2023-04-06T10:13:47;5.73;;;4.10;;
26106;SDS011;13866;50.748;12.630;2023-04-06T10:16:16;5.47;;;5.17;;
26106;SDS011;13866;50.748;12.630;2023-04-06T10:18:44;3.60;;;3.50;;
26106;SDS011;13866;50.748;12.630;2023-04-06T10:21:20;4.30;;;4.20;;
26106;SDS011;13866;50.748;12.630;2023-04-06T10:23:52;4.07;;;3.97;;
26106;SDS011;13866;50.748;12.630;2023-04-06T10:26:27;4.10;;;4.00;;
26106;SDS011;13866;50.748;12.630;2023-04-06T10:29:01;6.27;;;4.90;;
26106;SDS011;13866;50.748;12.630;2023-04-06T10:31:30;4.77;;;4.37;;
26106;SDS011;13866;50.748;12.630;2023-04-06T10:33:59;3.93;;;3.83;;
26106;SDS011;13866;50.748;12.630;2023-04-06T10:36:35;4.10;;;4.00;;
26106;SDS011;13866;50.748;12.630;2023-04-06T10:39:04;4.77;;;4.53;;
26106;SDS011;13866;50.748;12.630;2023-04-06T10:41:35;3.80;;;3.60;;
26106;SDS011;13866;50.748;12.630;2023-04-06T10:44:05;6.70;;;5.27;;
26106;SDS011;13866;50.748;12.630;2023-04-06T10:46:42;11.57;;;6.53;;
26106;SDS011;13866;50.748;12.630;2023-04-06T10:49:18;4.73;;;4.40;;
26106;SDS011;13866;50.748;12.630;2023-04-06T10:51:55;5.27;;;4.97;;
26106;SDS011;13866;50.748;12.630;2023-04-06T10:54:24;5.10;;;4.70;;
26106;SDS011;13866;50.748;12.630;2023-04-06T10:56:57;4.97;;;4.67;;
26106;SDS011;13866;50.748;12.630;2023-04-06T10:59:28;5.33;;;3.93;;
26106;SDS011;13866;50.748;12.630;2023-04-06T11:02:00;4.73;;;4.50;;
26106;SDS011;13866;50.748;12.630;2023-04-06T11:04:25;6.77;;;4.00;;
26106;SDS011;13866;50.748;12.630;2023-04-06T11:06:53;4.03;;;3.73;;
26106;SDS011;13866;50.748;12.630;2023-04-06T11:09:29;5.17;;;4.80;;
26106;SDS011;13866;50.748;12.630;2023-04-06T11:12:20;5.60;;;5.23;;
26106;SDS011;13866;50.748;12.630;2023-04-06T11:14:59;4.93;;;4.07;;
26106;SDS011;13866;50.748;12.630;2023-04-06T11:17:29;6.10;;;5.57;;
26106;SDS011;13866;50.748;12.630;2023-04-06T11:19:55;9.27;;;5.37;;
26106;SDS011;13866;50.748;12.630;2023-04-06T11:22:22;4.17;;;3.90;;
26106;SDS011;13866;50.748;12.630;2023-04-06T11:24:47;4.83;;;4.50;;
26106;SDS011;13866;50.748;12.630;2023-04-06T11:27:14;4.80;;;4.60;;
26106;SDS011;13866;50.748;12.630;2023-04-06T11:29:41;4.27;;;4.00;;
26106;SDS011;13866;50.748;12.630;2023-04-06T11:32:07;4.30;;;4.20;;
26106;SDS011;13866;50.748;12.630;2023-04-06T11:34:37;6.80;;;3.90;;
26106;SDS011;13866;50.748;12.630;2023-04-06T11:37:07;4.03;;;3.83;;
26106;SDS011;13866;50.748;12.630;2023-04-06T11:39:49;4.57;;;4.00;;
26106;SDS011;13866;50.748;12.630;2023-04-06T11:42:26;5.43;;;4.87;;
26106;SDS011;13866;50.748;12.630;2023-04-06T11:44:54;3.67;;;3.57;;
26106;SDS011;13866;50.748;12.630;2023-04-06T11:47:26;4.83;;;4.43;;
26106;SDS011;13866;50.748;12.630;2023-04-06T11:50:04;3.90;;;3.83;;
26106;SDS011;13866;50.748;12.630;2023-04-06T11:52:38;5.30;;;4.90;;
26106;SDS011;13866;50.748;12.630;2023-04-06T11:55:37;4.50;;;4.33;;
26106;SDS011;13866;50.748;12.630;2023-04-06T11:58:01;4.10;;;3.90;;
26106;SDS011;13866;50.748;12.630;2023-04-06T12:00:27;4.90;;;4.70;;
26106;SDS011;13866;50.748;12.630;2023-04-06T12:02:59;5.47;;;4.93;;
26106;SDS011;13866;50.748;12.630;2023-04-06T12:05:24;5.00;;;4.60;;
26106;SDS011;13866;50.748;12.630;2023-04-06T12:07:50;5.27;;;5.07;;
26106;SDS011;13866;50.748;12.630;2023-04-06T12:10:15;5.40;;;4.63;;
26106;SDS011;13866;50.748;12.630;2023-04-06T12:12:41;4.73;;;4.43;;
26106;SDS011;13866;50.748;12.630;2023-04-06T12:15:07;4.70;;;4.30;;
26106;SDS011;13866;50.748;12.630;2023-04-06T12:17:32;4.43;;;4.33;;
26106;SDS011;13866;50.748;12.630;2023-04-06T12:19:58;6.83;;;6.23;;
26106;SDS011;13866;50.748;12.630;2023-04-06T12:22:23;5.17;;;4.70;;
26106;SDS011;13866;50.748;12.630;2023-04-06T12:24:49;4.60;;;4.40;;
26106;SDS011;13866;50.748;12.630;2023-04-06T12:27:14;4.67;;;4.30;;
26106;SDS011;13866;50.748;12.630;2023-04-06T12:29:40;3.90;;;3.80;;
26106;SDS011;13866;50.748;12.630;2023-04-06T12:32:06;3.90;;;3.90;;
26106;SDS011;13866;50.748;12.630;2023-04-06T12:34:32;5.03;;;4.83;;
26106;SDS011;13866;50.748;12.630;2023-04-06T12:36:57;4.50;;;4.40;;
26106;SDS011;13866;50.748;12.630;2023-04-06T12:39:23;11.60;;;5.30;;
26106;SDS011;13866;50.748;12.630;2023-04-06T12:41:48;4.80;;;4.40;;
26106;SDS011;13866;50.748;12.630;2023-04-06T12:44:14;4.90;;;4.67;;
26106;SDS011;13866;50.748;12.630;2023-04-06T12:46:39;4.50;;;4.40;;
26106;SDS011;13866;50.748;12.630;2023-04-06T12:49:05;9.30;;;4.50;;
26106;SDS011;13866;50.748;12.630;2023-04-06T12:51:31;5.27;;;5.07;;
26106;SDS011;13866;50.748;12.630;2023-04-06T12:53:56;4.70;;;4.50;;
26106;SDS011;13866;50.748;12.630;2023-04-06T12:56:22;5.17;;;4.97;;
26106;SDS011;13866;50.748;12.630;2023-04-06T12:58:48;5.27;;;4.97;;
26106;SDS011;13866;50.748;12.630;2023-04-06T13:01:15;5.17;;;4.83;;
26106;SDS011;13866;50.748;12.630;2023-04-06T13:03:41;7.43;;;4.53;;
26106;SDS011;13866;50.748;12.630;2023-04-06T13:06:07;6.00;;;4.50;;
26106;SDS011;13866;50.748;12.630;2023-04-06T13:08:33;6.03;;;5.53;;
26106;SDS011;13866;50.748;12.630;2023-04-06T13:10:59;3.90;;;3.70;;
26106;SDS011;13866;50.748;12.630;2023-04-06T13:13:26;4.83;;;4.63;;
26106;SDS011;13866;50.748;12.630;2023-04-06T13:15:53;4.20;;;4.10;;
26106;SDS011;13866;50.748;12.630;2023-04-06T13:18:20;4.70;;;4.50;;
26106;SDS011;13866;50.748;12.630;2023-04-06T13:20:47;4.80;;;4.50;;
26106;SDS011;13866;50.748;12.630;2023-04-06T13:23:13;5.07;;;4.77;;
26106;SDS011;13866;50.748;12.630;2023-04-06T13:25:39;4.93;;;4.83;;
26106;SDS011;13866;50.748;12.630;2023-04-06T13:28:05;6.90;;;6.47;;
26106;SDS011;13866;50.748;12.630;2023-04-06T13:30:30;6.20;;;5.80;;
26106;SDS011;13866;50.748;12.630;2023-04-06T13:32:55;5.17;;;4.97;;
26106;SDS011;13866;50.748;12.630;2023-04-06T13:35:21;5.43;;;5.10;;
26106;SDS011;13866;50.748;12.630;2023-04-06T13:37:46;5.17;;;4.97;;
26106;SDS011;13866;50.748;12.630;2023-04-06T13:40:13;4.80;;;4.37;;
26106;SDS011;13866;50.748;12.630;2023-04-06T13:42:38;5.53;;;5.17;;
26106;SDS011;13866;50.748;12.630;2023-04-06T13:45:05;6.23;;;5.20;;
26106;SDS011;13866;50.748;12.630;2023-04-06T13:47:32;5.93;;;5.43;;
26106;SDS011;13866;50.748;12.630;2023-04-06T13:49:57;5.23;;;4.93;;
26106;SDS011;13866;50.748;12.630;2023-04-06T13:52:23;4.80;;;4.50;;
26106;SDS011;13866;50.748;12.630;2023-04-06T13:54:49;5.87;;;5.37;;
26106;SDS011;13866;50.748;12.630;2023-04-06T13:57:15;4.97;;;4.70;;
26106;SDS011;13866;50.748;12.630;2023-04-06T13:59:40;8.87;;;4.50;;
26106;SDS011;13866;50.748;12.630;2023-04-06T14:02:06;11.53;;;5.77;;
26106;SDS011;13866;50.748;12.630;2023-04-06T14:04:33;4.90;;;4.50;;
26106;SDS011;13866;50.748;12.630;2023-04-06T14:06:59;5.40;;;5.10;;
26106;SDS011;13866;50.748;12.630;2023-04-06T14:09:26;5.93;;;5.70;;
26106;SDS011;13866;50.748;12.630;2023-04-06T14:11:52;5.60;;;5.30;;
26106;SDS011;13866;50.748;12.630;2023-04-06T14:14:18;5.10;;;4.80;;
26106;SDS011;13866;50.748;12.630;2023-04-06T14:16:43;5.93;;;5.73;;
26106;SDS011;13866;50.748;12.630;2023-04-06T14:19:10;7.40;;;5.57;;
26106;SDS011;13866;50.748;12.630;2023-04-06T14:21:40;5.30;;;5.10;;
26106;SDS011;13866;50.748;12.630;2023-04-06T14:24:06;5.20;;;5.10;;
26106;SDS011;13866;50.748;12.630;2023-04-06T14:26:33;7.70;;;5.73;;
26106;SDS011;13866;50.748;12.630;2023-04-06T14:28:59;5.47;;;5.27;;
26106;SDS011;13866;50.748;12.630;2023-04-06T14:31:25;5.57;;;5.33;;
26106;SDS011;13866;50.748;12.630;2023-04-06T14:33:51;4.90;;;4.80;;
26106;SDS011;13866;50.748;12.630;2023-04-06T14:36:17;7.23;;;5.73;;
26106;SDS011;13866;50.748;12.630;2023-04-06T14:38:42;4.97;;;4.77;;
26106;SDS011;13866;50.748;12.630;2023-04-06T14:41:21;4.57;;;4.43;;